sensor_id;sensor_type;location;lat;lon;timestamp;pressure;altitude;pressure_sealevel;temperature;humidity
35910;BME280;22004;49.120;-0.200;2023-05-21T00:01:37;101714.59;;;13.96;72.99
35910;BME280;22004;49.120;-0.200;2023-05-21T00:04:03;101719.84;;;13.98;73.00
35910;BME280;22004;49.120;-0.200;2023-05-21T00:06:30;101714.00;;;13.86;72.90
35910;BME280;22004;49.120;-0.200;2023-05-21T00:08:56;101717.59;;;14.01;72.79
35910;BME280;22004;49.120;-0.200;2023-05-21T00:11:21;101717.78;;;14.00;72.86
35910;BME280;22004;49.120;-0.200;2023-05-21T00:13:48;101714.44;;;13.98;72.97
35910;BME280;22004;49.120;-0.200;2023-05-21T00:16:13;101722.16;;;14.01;72.86
35910;BME280;22004;49.120;-0.200;2023-05-21T00:18:38;101722.56;;;13.98;73.01
35910;BME280;22004;49.120;-0.200;2023-05-21T00:21:04;101721.16;;;14.02;72.62
35910;BME280;22004;49.120;-0.200;2023-05-21T00:23:29;101721.88;;;13.95;72.81
35910;BME280;22004;49.120;-0.200;2023-05-21T00:25:57;101714.91;;;14.01;73.10
35910;BME280;22004;49.120;-0.200;2023-05-21T00:28:23;101711.69;;;13.83;73.57
35910;BME280;22004;49.120;-0.200;2023-05-21T00:30:48;101710.13;;;13.88;73.36
35910;BME280;22004;49.120;-0.200;2023-05-21T00:33:14;101710.97;;;13.89;73.20
35910;BME280;22004;49.120;-0.200;2023-05-21T00:35:39;101710.16;;;13.80;73.42
35910;BME280;22004;49.120;-0.200;2023-05-21T00:38:05;101721.44;;;13.84;73.35
35910;BME280;22004;49.120;-0.200;2023-05-21T00:40:31;101702.25;;;13.79;73.39
35910;BME280;22004;49.120;-0.200;2023-05-21T00:42:57;101701.75;;;13.75;73.71
35910;BME280;22004;49.120;-0.200;2023-05-21T00:45:22;101700.56;;;13.78;73.53
35910;BME280;22004;49.120;-0.200;2023-05-21T00:47:50;101699.59;;;13.70;73.62
35910;BME280;22004;49.120;-0.200;2023-05-21T00:50:19;101698.00;;;13.84;73.48
35910;BME280;22004;49.120;-0.200;2023-05-21T00:52:44;101700.50;;;13.86;73.23
35910;BME280;22004;49.120;-0.200;2023-05-21T00:55:10;101696.94;;;13.93;73.23
35910;BME280;22004;49.120;-0.200;2023-05-21T00:57:36;101697.28;;;13.90;72.86
35910;BME280;22004;49.120;-0.200;2023-05-21T01:00:03;101690.38;;;13.88;73.44
35910;BME280;22004;49.120;-0.200;2023-05-21T01:02:31;101699.19;;;13.82;73.15
35910;BME280;22004;49.120;-0.200;2023-05-21T01:04:59;101697.47;;;13.89;73.35
35910;BME280;22004;49.120;-0.200;2023-05-21T01:07:24;101694.38;;;13.92;72.69
35910;BME280;22004;49.120;-0.200;2023-05-21T01:09:50;101699.97;;;13.90;73.25
35910;BME280;22004;49.120;-0.200;2023-05-21T01:12:16;101704.47;;;13.75;73.82
35910;BME280;22004;49.120;-0.200;2023-05-21T01:14:42;101701.72;;;13.83;73.55
35910;BME280;22004;49.120;-0.200;2023-05-21T01:17:09;101696.44;;;13.90;73.44
35910;BME280;22004;49.120;-0.200;2023-05-21T01:19:35;101700.09;;;13.97;73.17
35910;BME280;22004;49.120;-0.200;2023-05-21T01:22:05;101703.88;;;13.88;73.43
35910;BME280;22004;49.120;-0.200;2023-05-21T01:24:31;101695.81;;;13.80;73.57
35910;BME280;22004;49.120;-0.200;2023-05-21T01:26:57;101692.78;;;13.83;73.52
35910;BME280;22004;49.120;-0.200;2023-05-21T01:29:23;101690.38;;;13.57;74.19
35910;BME280;22004;49.120;-0.200;2023-05-21T01:32:06;101697.72;;;13.71;73.92
35910;BME280;22004;49.120;-0.200;2023-05-21T01:35:03;101691.06;;;13.82;73.68
35910;BME280;22004;49.120;-0.200;2023-05-21T01:37:34;101700.00;;;13.82;73.73
35910;BME280;22004;49.120;-0.200;2023-05-21T01:40:10;101700.63;;;13.38;74.33
35910;BME280;22004;49.120;-0.200;2023-05-21T01:42:38;101698.44;;;13.65;74.65
35910;BME280;22004;49.120;-0.200;2023-05-21T01:45:07;101704.19;;;13.93;73.36
35910;BME280;22004;49.120;-0.200;2023-05-21T01:47:34;101697.72;;;13.71;73.31
35910;BME280;22004;49.120;-0.200;2023-05-21T01:50:02;101702.31;;;13.93;73.67
35910;BME280;22004;49.120;-0.200;2023-05-21T01:52:27;101696.63;;;13.88;73.51
35910;BME280;22004;49.120;-0.200;2023-05-21T01:54:58;101693.69;;;13.67;74.12
35910;BME280;22004;49.120;-0.200;2023-05-21T01:57:24;101697.47;;;13.89;73.35
35910;BME280;22004;49.120;-0.200;2023-05-21T01:59:50;101691.81;;;13.99;73.24
35910;BME280;22004;49.120;-0.200;2023-05-21T02:02:17;101704.72;;;13.88;73.42
35910;BME280;22004;49.120;-0.200;2023-05-21T02:04:42;101695.72;;;13.96;73.54
35910;BME280;22004;49.120;-0.200;2023-05-21T02:07:10;101700.50;;;13.86;73.78
35910;BME280;22004;49.120;-0.200;2023-05-21T02:09:35;101705.41;;;13.82;74.02
35910;BME280;22004;49.120;-0.200;2023-05-21T02:12:01;101707.53;;;13.95;73.63
35910;BME280;22004;49.120;-0.200;2023-05-21T02:14:27;101707.34;;;13.96;73.13
35910;BME280;22004;49.120;-0.200;2023-05-21T02:16:53;101711.09;;;13.64;74.74
35910;BME280;22004;49.120;-0.200;2023-05-21T02:19:19;101707.88;;;13.92;73.81
35910;BME280;22004;49.120;-0.200;2023-05-21T02:21:44;101703.47;;;13.99;73.37
35910;BME280;22004;49.120;-0.200;2023-05-21T02:24:10;101702.03;;;13.88;73.90
35910;BME280;22004;49.120;-0.200;2023-05-21T02:26:35;101697.91;;;13.69;74.65
35910;BME280;22004;49.120;-0.200;2023-05-21T02:29:02;101691.69;;;13.92;73.95
35910;BME280;22004;49.120;-0.200;2023-05-21T02:31:27;101696.47;;;13.82;74.26
35910;BME280;22004;49.120;-0.200;2023-05-21T02:33:53;101688.53;;;13.88;73.95
35910;BME280;22004;49.120;-0.200;2023-05-21T02:36:19;101683.44;;;13.93;73.95
35910;BME280;22004;49.120;-0.200;2023-05-21T02:38:44;101689.13;;;13.44;75.86
35910;BME280;22004;49.120;-0.200;2023-05-21T02:41:11;101686.84;;;13.56;75.21
35910;BME280;22004;49.120;-0.200;2023-05-21T02:43:36;101684.16;;;13.25;76.43
35910;BME280;22004;49.120;-0.200;2023-05-21T02:46:03;101685.97;;;13.33;76.47
35910;BME280;22004;49.120;-0.200;2023-05-21T02:48:28;101688.06;;;13.54;75.59
35910;BME280;22004;49.120;-0.200;2023-05-21T02:50:54;101682.75;;;13.68;74.88
35910;BME280;22004;49.120;-0.200;2023-05-21T02:53:19;101684.88;;;13.50;75.85
35910;BME280;22004;49.120;-0.200;2023-05-21T02:55:44;101684.69;;;13.52;75.50
35910;BME280;22004;49.120;-0.200;2023-05-21T02:58:10;101684.22;;;13.71;74.91
35910;BME280;22004;49.120;-0.200;2023-05-21T03:00:37;101684.44;;;13.38;75.77
35910;BME280;22004;49.120;-0.200;2023-05-21T03:03:03;101687.66;;;13.34;76.46
35910;BME280;22004;49.120;-0.200;2023-05-21T03:05:28;101687.59;;;13.42;75.70
35910;BME280;22004;49.120;-0.200;2023-05-21T03:07:53;101683.63;;;13.61;75.27
35910;BME280;22004;49.120;-0.200;2023-05-21T03:10:19;101684.13;;;13.64;74.97
35910;BME280;22004;49.120;-0.200;2023-05-21T03:12:44;101679.94;;;13.85;74.31
35910;BME280;22004;49.120;-0.200;2023-05-21T03:15:10;101687.50;;;13.89;74.21
35910;BME280;22004;49.120;-0.200;2023-05-21T03:17:38;101688.00;;;13.62;75.27
35910;BME280;22004;49.120;-0.200;2023-05-21T03:20:04;101688.16;;;13.68;75.08
35910;BME280;22004;49.120;-0.200;2023-05-21T03:22:30;101688.03;;;13.85;74.28
35910;BME280;22004;49.120;-0.200;2023-05-21T03:24:55;101696.19;;;14.00;73.70
35910;BME280;22004;49.120;-0.200;2023-05-21T03:27:22;101697.59;;;13.64;75.34
35910;BME280;22004;49.120;-0.200;2023-05-21T03:29:47;101695.75;;;13.65;75.12
35910;BME280;22004;49.120;-0.200;2023-05-21T03:32:13;101705.47;;;13.97;73.76
35910;BME280;22004;49.120;-0.200;2023-05-21T03:34:38;101702.97;;;13.73;74.70
35910;BME280;22004;49.120;-0.200;2023-05-21T03:37:03;101703.56;;;13.52;76.03
35910;BME280;22004;49.120;-0.200;2023-05-21T03:39:29;101705.28;;;13.76;74.90
35910;BME280;22004;49.120;-0.200;2023-05-21T03:41:54;101695.06;;;13.94;74.16
35910;BME280;22004;49.120;-0.200;2023-05-21T03:44:19;101701.06;;;13.50;75.70
35910;BME280;22004;49.120;-0.200;2023-05-21T03:46:45;101701.53;;;13.85;74.43
35910;BME280;22004;49.120;-0.200;2023-05-21T03:49:10;101709.84;;;13.75;75.05
35910;BME280;22004;49.120;-0.200;2023-05-21T03:51:35;101701.47;;;13.62;75.56
35910;BME280;22004;49.120;-0.200;2023-05-21T03:54:02;101700.44;;;13.71;75.02
35910;BME280;22004;49.120;-0.200;2023-05-21T03:56:27;101703.69;;;13.89;74.12
35910;BME280;22004;49.120;-0.200;2023-05-21T03:58:53;101698.31;;;13.19;77.04
35910;BME280;22004;49.120;-0.200;2023-05-21T04:01:18;101704.88;;;13.16;77.36
35910;BME280;22004;49.120;-0.200;2023-05-21T04:03:44;101698.72;;;13.78;74.74
35910;BME280;22004;49.120;-0.200;2023-05-21T04:06:09;101696.69;;;13.72;75.07
35910;BME280;22004;49.120;-0.200;2023-05-21T04:08:35;101696.94;;;13.93;74.31
35910;BME280;22004;49.120;-0.200;2023-05-21T04:11:02;101700.69;;;13.84;74.44
35910;BME280;22004;49.120;-0.200;2023-05-21T04:13:27;101695.47;;;13.83;74.66
35910;BME280;22004;49.120;-0.200;2023-05-21T04:15:53;101699.97;;;13.67;75.24
35910;BME280;22004;49.120;-0.200;2023-05-21T04:18:18;101699.03;;;13.83;74.58
35910;BME280;22004;49.120;-0.200;2023-05-21T04:20:44;101699.13;;;13.90;74.43
35910;BME280;22004;49.120;-0.200;2023-05-21T04:23:10;101701.16;;;13.65;75.42
35910;BME280;22004;49.120;-0.200;2023-05-21T04:25:35;101697.41;;;13.66;75.59
35910;BME280;22004;49.120;-0.200;2023-05-21T04:28:03;101691.50;;;13.70;75.16
35910;BME280;22004;49.120;-0.200;2023-05-21T04:30:29;101697.69;;;13.79;74.92
35910;BME280;22004;49.120;-0.200;2023-05-21T04:32:54;101697.44;;;14.12;73.52
35910;BME280;22004;49.120;-0.200;2023-05-21T04:35:19;101700.13;;;14.12;73.24
35910;BME280;22004;49.120;-0.200;2023-05-21T04:37:45;101705.66;;;13.73;75.03
35910;BME280;22004;49.120;-0.200;2023-05-21T04:40:11;101706.75;;;13.86;74.87
35910;BME280;22004;49.120;-0.200;2023-05-21T04:42:45;101709.94;;;13.90;74.42
35910;BME280;22004;49.120;-0.200;2023-05-21T04:45:11;101705.53;;;14.12;73.40
35910;BME280;22004;49.120;-0.200;2023-05-21T04:47:36;101705.13;;;14.00;74.36
35910;BME280;22004;49.120;-0.200;2023-05-21T04:50:02;101704.53;;;13.90;74.58
35910;BME280;22004;49.120;-0.200;2023-05-21T04:52:28;101707.94;;;14.07;73.61
35910;BME280;22004;49.120;-0.200;2023-05-21T04:54:54;101715.81;;;13.93;74.19
35910;BME280;22004;49.120;-0.200;2023-05-21T04:57:20;101714.03;;;14.09;73.20
35910;BME280;22004;49.120;-0.200;2023-05-21T04:59:45;101712.88;;;13.49;76.41
35910;BME280;22004;49.120;-0.200;2023-05-21T05:02:11;101707.34;;;13.96;74.05
35910;BME280;22004;49.120;-0.200;2023-05-21T05:04:37;101706.50;;;13.96;74.30
35910;BME280;22004;49.120;-0.200;2023-05-21T05:07:02;101704.34;;;13.68;75.56
35910;BME280;22004;49.120;-0.200;2023-05-21T05:09:28;101711.44;;;13.92;74.38
35910;BME280;22004;49.120;-0.200;2023-05-21T05:11:54;101707.50;;;14.03;73.98
35910;BME280;22004;49.120;-0.200;2023-05-21T05:14:19;101710.66;;;14.07;73.86
35910;BME280;22004;49.120;-0.200;2023-05-21T05:16:45;101710.00;;;14.05;73.84
35910;BME280;22004;49.120;-0.200;2023-05-21T05:19:12;101715.31;;;13.90;75.16
35910;BME280;22004;49.120;-0.200;2023-05-21T05:21:38;101706.50;;;13.96;74.86
35910;BME280;22004;49.120;-0.200;2023-05-21T05:24:03;101711.44;;;13.92;74.60
35910;BME280;22004;49.120;-0.200;2023-05-21T05:26:29;101712.06;;;14.03;74.90
35910;BME280;22004;49.120;-0.200;2023-05-21T05:28:54;101712.09;;;13.94;74.47
35910;BME280;22004;49.120;-0.200;2023-05-21T05:31:19;101715.28;;;13.67;76.26
35910;BME280;22004;49.120;-0.200;2023-05-21T05:33:45;101713.66;;;13.89;74.84
35910;BME280;22004;49.120;-0.200;2023-05-21T05:36:11;101703.03;;;14.10;74.17
35910;BME280;22004;49.120;-0.200;2023-05-21T05:38:36;101713.69;;;13.81;75.41
35910;BME280;22004;49.120;-0.200;2023-05-21T05:41:02;101712.81;;;14.11;74.03
35910;BME280;22004;49.120;-0.200;2023-05-21T05:43:27;101710.78;;;13.90;74.97
35910;BME280;22004;49.120;-0.200;2023-05-21T05:45:52;101716.34;;;14.12;73.90
35910;BME280;22004;49.120;-0.200;2023-05-21T05:48:18;101710.47;;;13.85;75.19
35910;BME280;22004;49.120;-0.200;2023-05-21T05:50:44;101712.16;;;14.09;74.19
35910;BME280;22004;49.120;-0.200;2023-05-21T05:53:09;101713.78;;;13.95;74.88
35910;BME280;22004;49.120;-0.200;2023-05-21T05:55:37;101705.19;;;14.15;74.35
35910;BME280;22004;49.120;-0.200;2023-05-21T05:58:03;101704.59;;;14.05;74.33
35910;BME280;22004;49.120;-0.200;2023-05-21T06:00:28;101701.97;;;14.19;73.92
35910;BME280;22004;49.120;-0.200;2023-05-21T06:02:53;101712.69;;;14.05;74.72
35910;BME280;22004;49.120;-0.200;2023-05-21T06:05:19;101718.06;;;13.59;76.57
35910;BME280;22004;49.120;-0.200;2023-05-21T06:07:44;101724.22;;;13.99;74.82
35910;BME280;22004;49.120;-0.200;2023-05-21T06:10:09;101717.72;;;14.31;73.50
35910;BME280;22004;49.120;-0.200;2023-05-21T06:12:35;101718.63;;;14.00;75.54
35910;BME280;22004;49.120;-0.200;2023-05-21T06:15:00;101718.66;;;14.23;73.97
35910;BME280;22004;49.120;-0.200;2023-05-21T06:17:26;101719.53;;;14.15;74.31
35910;BME280;22004;49.120;-0.200;2023-05-21T06:19:51;101721.69;;;14.20;74.63
35910;BME280;22004;49.120;-0.200;2023-05-21T06:22:16;101720.56;;;14.37;73.18
35910;BME280;22004;49.120;-0.200;2023-05-21T06:24:42;101718.50;;;14.39;73.02
35910;BME280;22004;49.120;-0.200;2023-05-21T06:27:07;101716.44;;;14.41;72.67
35910;BME280;22004;49.120;-0.200;2023-05-21T06:29:32;101725.19;;;14.29;74.12
35910;BME280;22004;49.120;-0.200;2023-05-21T06:31:58;101724.22;;;13.99;75.37
35910;BME280;22004;49.120;-0.200;2023-05-21T06:34:23;101731.31;;;14.22;74.59
35910;BME280;22004;49.120;-0.200;2023-05-21T06:36:49;101733.09;;;14.30;73.57
35910;BME280;22004;49.120;-0.200;2023-05-21T06:39:15;101727.56;;;14.01;75.92
35910;BME280;22004;49.120;-0.200;2023-05-21T06:41:41;101729.16;;;14.18;74.85
35910;BME280;22004;49.120;-0.200;2023-05-21T06:44:06;101733.13;;;14.07;75.46
35910;BME280;22004;49.120;-0.200;2023-05-21T06:46:31;101729.44;;;14.00;75.12
35910;BME280;22004;49.120;-0.200;2023-05-21T06:48:57;101736.63;;;14.31;74.46
35910;BME280;22004;49.120;-0.200;2023-05-21T06:51:22;101732.69;;;14.18;75.85
35910;BME280;22004;49.120;-0.200;2023-05-21T06:53:47;101732.25;;;13.84;76.40
35910;BME280;22004;49.120;-0.200;2023-05-21T06:56:13;101729.25;;;14.25;74.20
35910;BME280;22004;49.120;-0.200;2023-05-21T06:58:38;101730.56;;;14.52;73.75
35910;BME280;22004;49.120;-0.200;2023-05-21T07:01:04;101728.47;;;14.62;73.49
35910;BME280;22004;49.120;-0.200;2023-05-21T07:03:29;101729.31;;;14.16;75.42
35910;BME280;22004;49.120;-0.200;2023-05-21T07:05:56;101728.97;;;14.42;74.37
35910;BME280;22004;49.120;-0.200;2023-05-21T07:08:21;101728.25;;;14.48;73.98
35910;BME280;22004;49.120;-0.200;2023-05-21T07:10:48;101726.69;;;14.54;72.76
35910;BME280;22004;49.120;-0.200;2023-05-21T07:13:14;101727.53;;;14.55;73.18
35910;BME280;22004;49.120;-0.200;2023-05-21T07:15:39;101722.97;;;14.70;74.02
35910;BME280;22004;49.120;-0.200;2023-05-21T07:18:05;101725.84;;;14.54;73.15
35910;BME280;22004;49.120;-0.200;2023-05-21T07:20:30;101717.47;;;14.40;73.70
35910;BME280;22004;49.120;-0.200;2023-05-21T07:22:56;101715.25;;;14.44;73.92
35910;BME280;22004;49.120;-0.200;2023-05-21T07:25:22;101725.28;;;14.35;74.47
35910;BME280;22004;49.120;-0.200;2023-05-21T07:27:47;101725.22;;;14.43;73.91
35910;BME280;22004;49.120;-0.200;2023-05-21T07:30:13;101728.78;;;14.21;74.72
35910;BME280;22004;49.120;-0.200;2023-05-21T07:32:38;101728.53;;;14.31;74.99
35910;BME280;22004;49.120;-0.200;2023-05-21T07:35:04;101740.72;;;14.27;74.50
35910;BME280;22004;49.120;-0.200;2023-05-21T07:37:29;101735.53;;;14.48;73.89
35910;BME280;22004;49.120;-0.200;2023-05-21T07:39:56;101737.16;;;14.26;75.03
35910;BME280;22004;49.120;-0.200;2023-05-21T07:42:23;101734.16;;;14.44;74.58
35910;BME280;22004;49.120;-0.200;2023-05-21T07:44:48;101735.16;;;14.51;75.29
35910;BME280;22004;49.120;-0.200;2023-05-21T07:47:13;101742.34;;;14.59;74.31
35910;BME280;22004;49.120;-0.200;2023-05-21T07:49:39;101730.69;;;14.35;75.94
35910;BME280;22004;49.120;-0.200;2023-05-21T07:52:04;101735.50;;;14.25;75.80
35910;BME280;22004;49.120;-0.200;2023-05-21T07:54:30;101735.63;;;14.55;75.29
35910;BME280;22004;49.120;-0.200;2023-05-21T07:56:55;101733.53;;;14.80;74.48
35910;BME280;22004;49.120;-0.200;2023-05-21T07:59:21;101732.13;;;14.69;74.91
35910;BME280;22004;49.120;-0.200;2023-05-21T08:01:46;101720.66;;;14.44;75.29
35910;BME280;22004;49.120;-0.200;2023-05-21T08:04:11;101729.13;;;14.64;76.32
35910;BME280;22004;49.120;-0.200;2023-05-21T08:06:37;101724.59;;;14.79;77.41
35910;BME280;22004;49.120;-0.200;2023-05-21T08:09:03;101721.25;;;15.07;73.37
35910;BME280;22004;49.120;-0.200;2023-05-21T08:11:30;101711.56;;;14.83;75.50
35910;BME280;22004;49.120;-0.200;2023-05-21T08:13:55;101711.84;;;15.03;72.59
35910;BME280;22004;49.120;-0.200;2023-05-21T08:16:21;101718.16;;;15.10;73.32
35910;BME280;22004;49.120;-0.200;2023-05-21T08:18:47;101717.53;;;15.22;71.76
35910;BME280;22004;49.120;-0.200;2023-05-21T08:21:13;101719.41;;;15.07;73.08
35910;BME280;22004;49.120;-0.200;2023-05-21T08:23:38;101718.44;;;15.00;74.11
35910;BME280;22004;49.120;-0.200;2023-05-21T08:26:03;101722.72;;;14.80;75.14
35910;BME280;22004;49.120;-0.200;2023-05-21T08:28:29;101719.72;;;15.48;72.80
35910;BME280;22004;49.120;-0.200;2023-05-21T08:30:55;101728.31;;;15.67;71.35
35910;BME280;22004;49.120;-0.200;2023-05-21T08:33:20;101726.53;;;15.59;72.56
35910;BME280;22004;49.120;-0.200;2023-05-21T08:35:46;101728.50;;;15.50;72.91
35910;BME280;22004;49.120;-0.200;2023-05-21T08:38:11;101731.97;;;15.00;73.80
35910;BME280;22004;49.120;-0.200;2023-05-21T08:40:36;101733.53;;;15.68;71.29
35910;BME280;22004;49.120;-0.200;2023-05-21T08:43:02;101723.78;;;15.89;70.96
35910;BME280;22004;49.120;-0.200;2023-05-21T08:45:33;101717.56;;;16.59;70.92
35910;BME280;22004;49.120;-0.200;2023-05-21T08:48:03;101700.56;;;17.41;68.77
35910;BME280;22004;49.120;-0.200;2023-05-21T08:50:30;101698.47;;;16.46;70.33
35910;BME280;22004;49.120;-0.200;2023-05-21T08:52:55;101703.53;;;16.27;70.63
35910;BME280;22004;49.120;-0.200;2023-05-21T08:55:23;101696.63;;;16.03;69.96
35910;BME280;22004;49.120;-0.200;2023-05-21T08:57:49;101699.72;;;15.79;72.27
35910;BME280;22004;49.120;-0.200;2023-05-21T09:00:15;101695.06;;;15.58;72.99
35910;BME280;22004;49.120;-0.200;2023-05-21T09:02:40;101695.84;;;15.88;71.89
35910;BME280;22004;49.120;-0.200;2023-05-21T09:05:08;101698.81;;;15.93;70.69
35910;BME280;22004;49.120;-0.200;2023-05-21T09:07:44;101695.84;;;15.88;70.56
35910;BME280;22004;49.120;-0.200;2023-05-21T09:10:12;101691.91;;;16.34;70.11
35910;BME280;22004;49.120;-0.200;2023-05-21T09:12:38;101690.59;;;16.01;71.10
35910;BME280;22004;49.120;-0.200;2023-05-21T09:15:04;101691.91;;;15.91;72.37
35910;BME280;22004;49.120;-0.200;2023-05-21T09:17:30;101694.56;;;15.84;72.12
35910;BME280;22004;49.120;-0.200;2023-05-21T09:20:08;101689.41;;;16.11;72.23
35910;BME280;22004;49.120;-0.200;2023-05-21T09:22:45;101691.94;;;16.62;70.36
35910;BME280;22004;49.120;-0.200;2023-05-21T09:25:13;101690.69;;;16.64;71.19
35910;BME280;22004;49.120;-0.200;2023-05-21T09:27:39;101697.13;;;16.85;70.95
35910;BME280;22004;49.120;-0.200;2023-05-21T09:30:15;101687.25;;;17.53;69.24
35910;BME280;22004;49.120;-0.200;2023-05-21T09:32:42;101692.44;;;17.41;68.81
35910;BME280;22004;49.120;-0.200;2023-05-21T09:35:10;101697.66;;;18.11;65.68
35910;BME280;22004;49.120;-0.200;2023-05-21T09:37:40;101691.38;;;18.03;68.10
35910;BME280;22004;49.120;-0.200;2023-05-21T09:42:41;101672.59;;;19.40;64.82
35910;BME280;22004;49.120;-0.200;2023-05-21T09:45:08;101677.53;;;18.98;64.93
35910;BME280;22004;49.120;-0.200;2023-05-21T09:47:39;101670.69;;;18.69;63.63
35910;BME280;22004;49.120;-0.200;2023-05-21T09:50:05;101664.34;;;19.01;63.30
35910;BME280;22004;49.120;-0.200;2023-05-21T09:52:35;101664.88;;;19.75;61.89
35910;BME280;22004;49.120;-0.200;2023-05-21T09:55:02;101664.34;;;19.01;64.09
35910;BME280;22004;49.120;-0.200;2023-05-21T09:57:28;101660.59;;;18.89;62.99
35910;BME280;22004;49.120;-0.200;2023-05-21T09:59:53;101667.72;;;17.84;66.24
35910;BME280;22004;49.120;-0.200;2023-05-21T10:02:20;101668.78;;;18.63;65.29
35910;BME280;22004;49.120;-0.200;2023-05-21T10:04:47;101663.97;;;18.78;65.25
35910;BME280;22004;49.120;-0.200;2023-05-21T10:07:18;101677.56;;;17.92;66.10
35910;BME280;22004;49.120;-0.200;2023-05-21T10:09:46;101670.88;;;18.54;65.94
35910;BME280;22004;49.120;-0.200;2023-05-21T10:12:14;101677.28;;;17.19;68.59
35910;BME280;22004;49.120;-0.200;2023-05-21T10:14:43;101681.56;;;18.75;65.52
35910;BME280;22004;49.120;-0.200;2023-05-21T10:17:11;101672.69;;;19.06;66.04
35910;BME280;22004;49.120;-0.200;2023-05-21T10:19:37;101686.63;;;17.64;65.96
35910;BME280;22004;49.120;-0.200;2023-05-21T10:22:03;101689.56;;;17.56;68.14
35910;BME280;22004;49.120;-0.200;2023-05-21T10:24:30;101690.84;;;17.19;68.51
35910;BME280;22004;49.120;-0.200;2023-05-21T10:26:56;101683.59;;;19.06;66.87
35910;BME280;22004;49.120;-0.200;2023-05-21T10:29:22;101681.44;;;17.63;68.71
35910;BME280;22004;49.120;-0.200;2023-05-21T10:31:48;101670.88;;;18.67;65.51
35910;BME280;22004;49.120;-0.200;2023-05-21T10:34:14;101669.41;;;19.49;63.52
35910;BME280;22004;49.120;-0.200;2023-05-21T10:36:40;101673.28;;;19.22;63.16
35910;BME280;22004;49.120;-0.200;2023-05-21T10:39:08;101675.78;;;19.75;64.31
35910;BME280;22004;49.120;-0.200;2023-05-21T10:42:00;101671.91;;;19.44;63.21
35910;BME280;22004;49.120;-0.200;2023-05-21T10:47:52;101668.81;;;18.56;66.42
35910;BME280;22004;49.120;-0.200;2023-05-21T10:50:45;101666.91;;;18.56;65.02
35910;BME280;22004;49.120;-0.200;2023-05-21T10:53:26;101667.13;;;18.08;67.86
35910;BME280;22004;49.120;-0.200;2023-05-21T10:56:13;101653.97;;;18.32;67.08
35910;BME280;22004;49.120;-0.200;2023-05-21T11:01:30;101639.97;;;18.35;66.18
35910;BME280;22004;49.120;-0.200;2023-05-21T11:04:00;101639.97;;;18.15;66.02
35910;BME280;22004;49.120;-0.200;2023-05-21T11:06:26;101646.09;;;19.08;64.29
35910;BME280;22004;49.120;-0.200;2023-05-21T11:08:52;101631.38;;;19.23;64.99
35910;BME280;22004;49.120;-0.200;2023-05-21T11:11:40;101633.88;;;19.31;65.26
35910;BME280;22004;49.120;-0.200;2023-05-21T11:19:34;101638.03;;;19.40;63.48
35910;BME280;22004;49.120;-0.200;2023-05-21T11:22:00;101631.59;;;18.70;64.24
35910;BME280;22004;49.120;-0.200;2023-05-21T11:24:25;101624.91;;;19.17;65.07
35910;BME280;22004;49.120;-0.200;2023-05-21T11:26:57;101634.03;;;18.65;65.79
35910;BME280;22004;49.120;-0.200;2023-05-21T11:29:38;101624.88;;;19.24;64.73
35910;BME280;22004;49.120;-0.200;2023-05-21T11:32:05;101628.81;;;18.83;65.47
35910;BME280;22004;49.120;-0.200;2023-05-21T11:34:45;101624.84;;;18.66;65.42
35910;BME280;22004;49.120;-0.200;2023-05-21T11:39:46;101630.13;;;18.41;66.26
35910;BME280;22004;49.120;-0.200;2023-05-21T11:42:12;101623.38;;;18.63;66.84
35910;BME280;22004;49.120;-0.200;2023-05-21T11:44:44;101624.19;;;19.80;64.24
35910;BME280;22004;49.120;-0.200;2023-05-21T11:47:11;101629.56;;;19.48;63.85
35910;BME280;22004;49.120;-0.200;2023-05-21T11:49:38;101625.88;;;18.84;64.61
35910;BME280;22004;49.120;-0.200;2023-05-21T11:52:05;101640.94;;;19.45;64.01
35910;BME280;22004;49.120;-0.200;2023-05-21T11:54:32;101631.00;;;19.13;64.22
35910;BME280;22004;49.120;-0.200;2023-05-21T11:57:04;101641.78;;;19.39;64.05
35910;BME280;22004;49.120;-0.200;2023-05-21T11:59:30;101641.59;;;19.34;62.59
35910;BME280;22004;49.120;-0.200;2023-05-21T12:01:57;101642.75;;;19.06;63.66
35910;BME280;22004;49.120;-0.200;2023-05-21T12:04:28;101634.41;;;19.46;63.52
35910;BME280;22004;49.120;-0.200;2023-05-21T12:06:54;101641.06;;;19.57;63.01
35910;BME280;22004;49.120;-0.200;2023-05-21T12:09:19;101639.91;;;19.40;62.96
35910;BME280;22004;49.120;-0.200;2023-05-21T12:11:45;101640.16;;;19.31;63.69
35910;BME280;22004;49.120;-0.200;2023-05-21T12:14:10;101634.59;;;19.51;63.65
35910;BME280;22004;49.120;-0.200;2023-05-21T12:16:36;101635.91;;;18.91;63.13
35910;BME280;22004;49.120;-0.200;2023-05-21T12:19:03;101637.59;;;18.85;63.98
35910;BME280;22004;49.120;-0.200;2023-05-21T12:21:29;101633.22;;;18.77;62.74
35910;BME280;22004;49.120;-0.200;2023-05-21T12:23:55;101627.31;;;19.45;62.24
35910;BME280;22004;49.120;-0.200;2023-05-21T12:26:21;101630.31;;;19.30;62.25
35910;BME280;22004;49.120;-0.200;2023-05-21T12:28:51;101638.97;;;19.66;61.50
35910;BME280;22004;49.120;-0.200;2023-05-21T12:31:19;101633.41;;;19.41;60.12
35910;BME280;22004;49.120;-0.200;2023-05-21T12:33:49;101634.06;;;18.78;62.88
35910;BME280;22004;49.120;-0.200;2023-05-21T12:36:33;101643.03;;;18.78;62.85
35910;BME280;22004;49.120;-0.200;2023-05-21T12:38:59;101641.53;;;19.02;62.73
35910;BME280;22004;49.120;-0.200;2023-05-21T12:41:25;101637.25;;;19.71;61.79
35910;BME280;22004;49.120;-0.200;2023-05-21T12:43:50;101644.72;;;18.66;62.87
35910;BME280;22004;49.120;-0.200;2023-05-21T12:46:16;101637.75;;;19.10;61.96
35910;BME280;22004;49.120;-0.200;2023-05-21T12:48:51;101639.09;;;18.54;63.15
35910;BME280;22004;49.120;-0.200;2023-05-21T12:51:18;101634.88;;;18.78;63.23
35910;BME280;22004;49.120;-0.200;2023-05-21T12:53:45;101640.78;;;18.29;63.63
35910;BME280;22004;49.120;-0.200;2023-05-21T12:56:11;101642.22;;;18.78;62.77